Allendale, Wyoming
Current Conditions -  °F | °C
As of 1:53 AM on Saturday 25 Oct 2014 (Local Time) from KCPR Reporting Station
Clear Clear  
Wind Chill: 36°   Ceiling: Unl
Heat Index: 40°   Visibility: 10mi
Dew Point: 30°   Wind: 6mph
Humidity: 68%   Direction: 330°NNW
Pressure: 30.18"   Gusts: NA
Location:  42.84°N, 106.275°W
Report Text: KCPR 250753Z AUTO 33005KT 10SM CLR 04/M01 A3018 RMK AO2 SLP178 T00441011
Loading
Personal Weather Stations






























Interactive Weather Map
Tropical Storm Tracking
New forecast layout! Learn more

10-Day Weather Forecast

Advertisements
Track Severe Weather on mobile